sensor_id;sensor_type;location;lat;lon;timestamp;pressure;altitude;pressure_sealevel;temperature;humidity
28181;BME280;15464;50.988;10.318;2023-02-23T00:01:52;98547.69;;;7.31;95.54
28181;BME280;15464;50.988;10.318;2023-02-23T00:04:20;98547.69;;;7.31;95.75
28181;BME280;15464;50.988;10.318;2023-02-23T00:06:46;98545.03;;;7.31;95.44
28181;BME280;15464;50.988;10.318;2023-02-23T00:09:13;98547.06;;;7.27;95.83
28181;BME280;15464;50.988;10.318;2023-02-23T00:11:51;98543.59;;;7.26;95.50
28181;BME280;15464;50.988;10.318;2023-02-23T00:14:18;98546.47;;;7.23;95.56
28181;BME280;15464;50.988;10.318;2023-02-23T00:16:45;98546.47;;;7.23;94.89
28181;BME280;15464;50.988;10.318;2023-02-23T00:19:12;98542.28;;;7.21;95.15
28181;BME280;15464;50.988;10.318;2023-02-23T00:21:43;98540.69;;;7.18;94.70
28181;BME280;15464;50.988;10.318;2023-02-23T00:24:12;98543.34;;;7.18;94.94
28181;BME280;15464;50.988;10.318;2023-02-23T00:26:41;98539.75;;;7.19;94.80
28181;BME280;15464;50.988;10.318;2023-02-23T00:29:12;98547.28;;;7.13;95.02
28181;BME280;15464;50.988;10.318;2023-02-23T00:31:45;98542.28;;;7.10;94.78
28181;BME280;15464;50.988;10.318;2023-02-23T00:34:13;98540.72;;;7.07;94.82
28181;BME280;15464;50.988;10.318;2023-02-23T00:36:41;98540.13;;;7.04;94.79
28181;BME280;15464;50.988;10.318;2023-02-23T00:39:10;98542.88;;;7.02;94.44
28181;BME280;15464;50.988;10.318;2023-02-23T00:41:48;98548.38;;;6.99;94.62
28181;BME280;15464;50.988;10.318;2023-02-23T00:44:15;98551.97;;;6.98;94.56
28181;BME280;15464;50.988;10.318;2023-02-23T00:46:43;98544.06;;;6.98;94.99
28181;BME280;15464;50.988;10.318;2023-02-23T00:49:11;98547.03;;;6.94;95.06
28181;BME280;15464;50.988;10.318;2023-02-23T00:51:38;98551.00;;;6.88;94.44
28181;BME280;15464;50.988;10.318;2023-02-23T00:54:06;98546.81;;;6.85;94.21
28181;BME280;15464;50.988;10.318;2023-02-23T00:56:33;98543.34;;;6.85;94.29
28181;BME280;15464;50.988;10.318;2023-02-23T00:58:59;98549.66;;;6.82;94.50
28181;BME280;15464;50.988;10.318;2023-02-23T01:01:27;98543.78;;;6.79;94.57
28181;BME280;15464;50.988;10.318;2023-02-23T01:03:53;98551.09;;;6.75;93.98
28181;BME280;15464;50.988;10.318;2023-02-23T01:06:21;98545.22;;;6.72;94.38
28181;BME280;15464;50.988;10.318;2023-02-23T01:08:49;98550.72;;;6.69;93.99
28181;BME280;15464;50.988;10.318;2023-02-23T01:11:19;98557.06;;;6.66;94.33
28181;BME280;15464;50.988;10.318;2023-02-23T01:13:51;98550.31;;;6.62;94.05
28181;BME280;15464;50.988;10.318;2023-02-23T01:16:21;98549.72;;;6.59;94.61
28181;BME280;15464;50.988;10.318;2023-02-23T01:18:48;98550.19;;;6.53;95.38
28181;BME280;15464;50.988;10.318;2023-02-23T01:21:25;98557.63;;;6.47;96.15
28181;BME280;15464;50.988;10.318;2023-02-23T01:23:52;98551.84;;;6.42;96.96
28181;BME280;15464;50.988;10.318;2023-02-23T01:26:21;98557.72;;;6.46;97.49
28181;BME280;15464;50.988;10.318;2023-02-23T01:28:49;98559.28;;;6.48;96.62
28181;BME280;15464;50.988;10.318;2023-02-23T01:31:17;98550.66;;;6.46;98.61
28181;BME280;15464;50.988;10.318;2023-02-23T01:33:44;98547.28;;;6.44;97.12
28181;BME280;15464;50.988;10.318;2023-02-23T01:36:11;98553.84;;;6.39;97.17
28181;BME280;15464;50.988;10.318;2023-02-23T01:38:39;98554.81;;;6.38;96.69
28181;BME280;15464;50.988;10.318;2023-02-23T01:41:06;98555.78;;;6.37;96.56
28181;BME280;15464;50.988;10.318;2023-02-23T01:43:34;98559.38;;;6.36;96.72
28181;BME280;15464;50.988;10.318;2023-02-23T01:46:02;98551.56;;;6.34;96.56
28181;BME280;15464;50.988;10.318;2023-02-23T01:48:36;98546.53;;;6.31;96.27
28181;BME280;15464;50.988;10.318;2023-02-23T01:51:12;98553.94;;;6.26;96.62
28181;BME280;15464;50.988;10.318;2023-02-23T01:53:49;98554.88;;;6.25;96.61
28181;BME280;15464;50.988;10.318;2023-02-23T01:56:22;98544.25;;;6.27;96.69
28181;BME280;15464;50.988;10.318;2023-02-23T01:58:54;98552.78;;;6.30;97.53
28181;BME280;15464;50.988;10.318;2023-02-23T02:01:23;98552.88;;;6.29;97.17
28181;BME280;15464;50.988;10.318;2023-02-23T02:03:56;98548.06;;;6.23;97.44
28181;BME280;15464;50.988;10.318;2023-02-23T02:06:24;98555.97;;;6.23;97.39
28181;BME280;15464;50.988;10.318;2023-02-23T02:08:57;98550.81;;;6.21;97.21
28181;BME280;15464;50.988;10.318;2023-02-23T02:11:25;98550.69;;;6.23;98.11
28181;BME280;15464;50.988;10.318;2023-02-23T02:14:08;98551.41;;;6.25;98.29
28181;BME280;15464;50.988;10.318;2023-02-23T02:23:18;98538.59;;;6.20;99.54
28181;BME280;15464;50.988;10.318;2023-02-23T02:39:58;98542.03;;;6.10;99.75
28181;BME280;15464;50.988;10.318;2023-02-23T02:42:56;98534.22;;;6.08;100.00
28181;BME280;15464;50.988;10.318;2023-02-23T02:48:23;98530.09;;;6.17;100.00
28181;BME280;15464;50.988;10.318;2023-02-23T02:50:55;98532.09;;;6.13;100.00
28181;BME280;15464;50.988;10.318;2023-02-23T02:56:13;98539.28;;;6.11;100.00
28181;BME280;15464;50.988;10.318;2023-02-23T02:58:46;98520.22;;;6.07;100.00
28181;BME280;15464;50.988;10.318;2023-02-23T03:01:17;98527.06;;;6.10;100.00
28181;BME280;15464;50.988;10.318;2023-02-23T03:04:22;98524.16;;;6.02;99.77
28181;BME280;15464;50.988;10.318;2023-02-23T03:07:20;98524.38;;;5.99;100.00
28181;BME280;15464;50.988;10.318;2023-02-23T03:16:38;98527.69;;;5.90;100.00
28181;BME280;15464;50.988;10.318;2023-02-23T03:19:29;98521.22;;;5.94;100.00
28181;BME280;15464;50.988;10.318;2023-02-23T03:22:38;98517.66;;;5.95;100.00
28181;BME280;15464;50.988;10.318;2023-02-23T03:25:53;98525.53;;;5.95;100.00
28181;BME280;15464;50.988;10.318;2023-02-23T03:28:58;98528.41;;;5.92;100.00
28181;BME280;15464;50.988;10.318;2023-02-23T03:31:58;98528.19;;;5.95;100.00
28181;BME280;15464;50.988;10.318;2023-02-23T03:34:53;98528.31;;;5.93;100.00
28181;BME280;15464;50.988;10.318;2023-02-23T03:37:49;98533.44;;;5.95;100.00
28181;BME280;15464;50.988;10.318;2023-02-23T03:40:38;98528.91;;;5.97;100.00
28181;BME280;15464;50.988;10.318;2023-02-23T03:43:29;98529.84;;;5.96;100.00
28181;BME280;15464;50.988;10.318;2023-02-23T03:46:17;98531.53;;;5.97;100.00
28181;BME280;15464;50.988;10.318;2023-02-23T03:49:07;98528.91;;;5.97;100.00
28181;BME280;15464;50.988;10.318;2023-02-23T03:52:01;98528.91;;;5.97;100.00
28181;BME280;15464;50.988;10.318;2023-02-23T03:54:56;98528.06;;;5.96;100.00
28181;BME280;15464;50.988;10.318;2023-02-23T03:57:45;98535.88;;;5.98;100.00
28181;BME280;15464;50.988;10.318;2023-02-23T04:00:37;98526.03;;;6.00;100.00
28181;BME280;15464;50.988;10.318;2023-02-23T04:03:25;98527.72;;;6.01;100.00
28181;BME280;15464;50.988;10.318;2023-02-23T04:06:13;98534.69;;;6.02;100.00
28181;BME280;15464;50.988;10.318;2023-02-23T04:09:01;98533.44;;;5.95;100.00
28181;BME280;15464;50.988;10.318;2023-02-23T04:12:01;98532.84;;;5.91;100.00
28181;BME280;15464;50.988;10.318;2023-02-23T04:17:24;98537.25;;;5.91;100.00
28181;BME280;15464;50.988;10.318;2023-02-23T04:19:54;98539.78;;;5.92;100.00
28181;BME280;15464;50.988;10.318;2023-02-23T04:22:22;98539.66;;;5.94;100.00
28181;BME280;15464;50.988;10.318;2023-02-23T04:24:49;98547.53;;;5.94;100.00
28181;BME280;15464;50.988;10.318;2023-02-23T04:27:17;98547.44;;;5.95;100.00
28181;BME280;15464;50.988;10.318;2023-02-23T04:29:44;98542.28;;;5.94;100.00
28181;BME280;15464;50.988;10.318;2023-02-23T04:32:17;98552.38;;;6.00;100.00
28181;BME280;15464;50.988;10.318;2023-02-23T04:34:44;98542.47;;;6.03;100.00
28181;BME280;15464;50.988;10.318;2023-02-23T04:37:12;98546.44;;;6.09;100.00
28181;BME280;15464;50.988;10.318;2023-02-23T04:39:38;98550.97;;;6.07;100.00
28181;BME280;15464;50.988;10.318;2023-02-23T04:42:05;98553.84;;;6.04;100.00
28181;BME280;15464;50.988;10.318;2023-02-23T04:44:32;98548.78;;;6.01;100.00
28181;BME280;15464;50.988;10.318;2023-02-23T04:46:58;98550.72;;;5.99;100.00
28181;BME280;15464;50.988;10.318;2023-02-23T04:49:25;98545.31;;;6.00;100.00
28181;BME280;15464;50.988;10.318;2023-02-23T04:51:52;98547.94;;;6.00;100.00
28181;BME280;15464;50.988;10.318;2023-02-23T04:54:19;98545.31;;;6.00;100.00
28181;BME280;15464;50.988;10.318;2023-02-23T04:56:46;98547.09;;;6.00;100.00
28181;BME280;15464;50.988;10.318;2023-02-23T04:59:12;98547.84;;;6.02;100.00
28181;BME280;15464;50.988;10.318;2023-02-23T05:01:39;98553.09;;;6.02;100.00
28181;BME280;15464;50.988;10.318;2023-02-23T05:04:06;98552.91;;;6.05;100.00
28181;BME280;15464;50.988;10.318;2023-02-23T05:06:32;98554.53;;;6.06;100.00
28181;BME280;15464;50.988;10.318;2023-02-23T05:08:59;98556.47;;;6.04;100.00
28181;BME280;15464;50.988;10.318;2023-02-23T05:11:26;98559.22;;;6.02;100.00
28181;BME280;15464;50.988;10.318;2023-02-23T05:13:53;98555.53;;;6.05;100.00
28181;BME280;15464;50.988;10.318;2023-02-23T05:16:20;98556.47;;;6.04;100.00
28181;BME280;15464;50.988;10.318;2023-02-23T05:18:46;98558.66;;;6.10;100.00
28181;BME280;15464;50.988;10.318;2023-02-23T05:21:13;98548.72;;;6.14;100.00
28181;BME280;15464;50.988;10.318;2023-02-23T05:23:40;98560.09;;;6.14;100.00
28181;BME280;15464;50.988;10.318;2023-02-23T05:26:09;98555.47;;;6.18;100.00
28181;BME280;15464;50.988;10.318;2023-02-23T05:28:38;98556.06;;;6.21;100.00
28181;BME280;15464;50.988;10.318;2023-02-23T05:31:05;98551.03;;;6.18;100.00
28181;BME280;15464;50.988;10.318;2023-02-23T05:33:33;98553.44;;;6.21;100.00
28181;BME280;15464;50.988;10.318;2023-02-23T05:36:03;98556.19;;;6.20;100.00
28181;BME280;15464;50.988;10.318;2023-02-23T05:38:30;98549.00;;;6.22;100.00
28181;BME280;15464;50.988;10.318;2023-02-23T05:40:57;98550.91;;;6.20;100.00
28181;BME280;15464;50.988;10.318;2023-02-23T05:43:24;98549.34;;;6.17;100.00
28181;BME280;15464;50.988;10.318;2023-02-23T05:45:50;98552.84;;;6.18;100.00
28181;BME280;15464;50.988;10.318;2023-02-23T05:48:17;98554.63;;;6.17;100.00
28181;BME280;15464;50.988;10.318;2023-02-23T05:50:43;98556.06;;;6.21;100.00
28181;BME280;15464;50.988;10.318;2023-02-23T05:53:10;98550.81;;;6.21;100.00
28181;BME280;15464;50.988;10.318;2023-02-23T05:55:37;98555.00;;;6.24;100.00
28181;BME280;15464;50.988;10.318;2023-02-23T05:58:03;98553.94;;;6.26;100.00
28181;BME280;15464;50.988;10.318;2023-02-23T06:00:30;98552.97;;;6.27;100.00
28181;BME280;15464;50.988;10.318;2023-02-23T06:02:56;98559.19;;;6.26;100.00
28181;BME280;15464;50.988;10.318;2023-02-23T06:05:23;98561.81;;;6.26;100.00
28181;BME280;15464;50.988;10.318;2023-02-23T06:07:50;98560.88;;;6.27;100.00
28181;BME280;15464;50.988;10.318;2023-02-23T06:10:17;98561.81;;;6.26;100.00
28181;BME280;15464;50.988;10.318;2023-02-23T06:12:43;98560.88;;;6.27;100.00
28181;BME280;15464;50.988;10.318;2023-02-23T06:15:10;98562.66;;;6.27;100.00
28181;BME280;15464;50.988;10.318;2023-02-23T06:17:37;98558.97;;;6.29;100.00
28181;BME280;15464;50.988;10.318;2023-02-23T06:20:04;98562.47;;;6.30;100.00
28181;BME280;15464;50.988;10.318;2023-02-23T06:22:32;98564.97;;;6.31;100.00
28181;BME280;15464;50.988;10.318;2023-02-23T06:24:59;98559.81;;;6.30;100.00
28181;BME280;15464;50.988;10.318;2023-02-23T06:27:25;98569.28;;;6.32;100.00
28181;BME280;15464;50.988;10.318;2023-02-23T06:29:52;98568.44;;;6.32;100.00
28181;BME280;15464;50.988;10.318;2023-02-23T06:32:19;98570.22;;;6.31;100.00
28181;BME280;15464;50.988;10.318;2023-02-23T06:34:45;98578.88;;;6.33;100.00
28181;BME280;15464;50.988;10.318;2023-02-23T06:37:12;98576.97;;;6.35;100.00
28181;BME280;15464;50.988;10.318;2023-02-23T06:39:39;98582.94;;;6.37;100.00
28181;BME280;15464;50.988;10.318;2023-02-23T06:42:05;98580.84;;;6.42;100.00
28181;BME280;15464;50.988;10.318;2023-02-23T06:44:32;98584.16;;;6.44;100.00
28181;BME280;15464;50.988;10.318;2023-02-23T06:47:03;98580.59;;;6.45;100.00
28181;BME280;15464;50.988;10.318;2023-02-23T06:49:31;98587.75;;;6.43;100.00
28181;BME280;15464;50.988;10.318;2023-02-23T06:51:58;98585.84;;;6.45;100.00
28181;BME280;15464;50.988;10.318;2023-02-23T06:54:25;98580.38;;;6.48;100.00
28181;BME280;15464;50.988;10.318;2023-02-23T06:56:52;98587.19;;;6.51;100.00
28181;BME280;15464;50.988;10.318;2023-02-23T06:59:22;98593.19;;;6.53;100.00
28181;BME280;15464;50.988;10.318;2023-02-23T07:01:49;98590.31;;;6.56;100.00
28181;BME280;15464;50.988;10.318;2023-02-23T07:04:16;98591.91;;;6.59;100.00
28181;BME280;15464;50.988;10.318;2023-02-23T07:06:43;98590.84;;;6.61;100.00
28181;BME280;15464;50.988;10.318;2023-02-23T07:09:10;98598.59;;;6.63;100.00
28181;BME280;15464;50.988;10.318;2023-02-23T07:11:36;98596.69;;;6.65;100.00
28181;BME280;15464;50.988;10.318;2023-02-23T07:14:03;98595.66;;;6.67;100.00
28181;BME280;15464;50.988;10.318;2023-02-23T07:16:30;98605.09;;;6.70;100.00
28181;BME280;15464;50.988;10.318;2023-02-23T07:18:56;98604.03;;;6.72;100.00
28181;BME280;15464;50.988;10.318;2023-02-23T07:21:23;98610.06;;;6.74;100.00
28181;BME280;15464;50.988;10.318;2023-02-23T07:23:50;98609.81;;;6.77;100.00
28181;BME280;15464;50.988;10.318;2023-02-23T07:26:17;98604.41;;;6.79;100.00
28181;BME280;15464;50.988;10.318;2023-02-23T07:28:43;98607.91;;;6.79;100.00
28181;BME280;15464;50.988;10.318;2023-02-23T07:31:10;98608.50;;;6.83;100.00
28181;BME280;15464;50.988;10.318;2023-02-23T07:33:37;98613.56;;;6.86;100.00
28181;BME280;15464;50.988;10.318;2023-02-23T07:36:04;98608.88;;;6.89;100.00
28181;BME280;15464;50.988;10.318;2023-02-23T07:38:31;98612.00;;;6.95;100.00
28181;BME280;15464;50.988;10.318;2023-02-23T07:41:00;98610.44;;;6.92;100.00
28181;BME280;15464;50.988;10.318;2023-02-23T07:43:27;98608.50;;;6.94;100.00
28181;BME280;15464;50.988;10.318;2023-02-23T07:45:58;98612.84;;;6.95;99.64
28181;BME280;15464;50.988;10.318;2023-02-23T07:48:25;98611.16;;;6.94;100.00
28181;BME280;15464;50.988;10.318;2023-02-23T07:50:52;98607.81;;;6.92;100.00
28181;BME280;15464;50.988;10.318;2023-02-23T07:53:19;98615.38;;;6.97;100.00
28181;BME280;15464;50.988;10.318;2023-02-23T07:55:54;98612.38;;;7.01;100.00
28181;BME280;15464;50.988;10.318;2023-02-23T07:58:21;98615.63;;;7.05;100.00
28181;BME280;15464;50.988;10.318;2023-02-23T08:00:48;98618.88;;;7.08;100.00
28181;BME280;15464;50.988;10.318;2023-02-23T08:03:14;98621.28;;;7.11;100.00
28181;BME280;15464;50.988;10.318;2023-02-23T08:05:41;98620.81;;;7.17;100.00
28181;BME280;15464;50.988;10.318;2023-02-23T08:08:10;98613.50;;;7.21;100.00
28181;BME280;15464;50.988;10.318;2023-02-23T08:10:38;98619.97;;;7.28;100.00
28181;BME280;15464;50.988;10.318;2023-02-23T08:13:05;98622.97;;;7.35;100.00
28181;BME280;15464;50.988;10.318;2023-02-23T08:15:32;98619.97;;;7.39;100.00
28181;BME280;15464;50.988;10.318;2023-02-23T08:17:58;98615.31;;;7.43;100.00
28181;BME280;15464;50.988;10.318;2023-02-23T08:20:25;98616.88;;;7.45;100.00
28181;BME280;15464;50.988;10.318;2023-02-23T08:22:56;98613.16;;;7.48;100.00
28181;BME280;15464;50.988;10.318;2023-02-23T08:25:23;98614.59;;;7.52;100.00
28181;BME280;15464;50.988;10.318;2023-02-23T08:27:50;98615.78;;;7.59;100.00
28181;BME280;15464;50.988;10.318;2023-02-23T08:30:21;98617.47;;;7.60;100.00
28181;BME280;15464;50.988;10.318;2023-02-23T08:32:48;98617.47;;;7.60;100.00
28181;BME280;15464;50.988;10.318;2023-02-23T08:35:16;98620.38;;;7.68;100.00
28181;BME280;15464;50.988;10.318;2023-02-23T08:37:45;98622.00;;;7.69;100.00
28181;BME280;15464;50.988;10.318;2023-02-23T08:40:12;98617.56;;;7.69;100.00
28181;BME280;15464;50.988;10.318;2023-02-23T08:42:42;98619.63;;;7.77;99.87
28181;BME280;15464;50.988;10.318;2023-02-23T08:45:11;98620.81;;;7.84;99.95
28181;BME280;15464;50.988;10.318;2023-02-23T08:47:38;98619.25;;;7.93;99.60
28181;BME280;15464;50.988;10.318;2023-02-23T08:50:05;98616.25;;;7.97;99.13
28181;BME280;15464;50.988;10.318;2023-02-23T08:52:32;98614.31;;;7.99;98.71
28181;BME280;15464;50.988;10.318;2023-02-23T08:54:59;98619.59;;;7.99;98.78
28181;BME280;15464;50.988;10.318;2023-02-23T08:57:26;98618.50;;;8.02;99.11
28181;BME280;15464;50.988;10.318;2023-02-23T08:59:52;98627.03;;;8.05;98.72
28181;BME280;15464;50.988;10.318;2023-02-23T09:02:19;98626.66;;;8.10;98.22
28181;BME280;15464;50.988;10.318;2023-02-23T09:04:46;98623.53;;;8.16;98.34
28181;BME280;15464;50.988;10.318;2023-02-23T09:07:15;98623.53;;;8.16;98.13
28181;BME280;15464;50.988;10.318;2023-02-23T09:09:42;98615.34;;;8.19;98.12
28181;BME280;15464;50.988;10.318;2023-02-23T09:12:09;98617.47;;;8.25;98.57
28181;BME280;15464;50.988;10.318;2023-02-23T09:14:35;98614.59;;;8.28;98.12
28181;BME280;15464;50.988;10.318;2023-02-23T09:17:02;98624.72;;;8.34;98.07
28181;BME280;15464;50.988;10.318;2023-02-23T09:19:30;98626.13;;;8.38;98.18
28181;BME280;15464;50.988;10.318;2023-02-23T09:21:57;98619.50;;;8.44;98.40
28181;BME280;15464;50.988;10.318;2023-02-23T09:24:23;98623.44;;;8.49;98.79
28181;BME280;15464;50.988;10.318;2023-02-23T09:26:50;98622.97;;;8.56;98.90
28181;BME280;15464;50.988;10.318;2023-02-23T09:29:18;98621.63;;;8.61;98.66
28181;BME280;15464;50.988;10.318;2023-02-23T09:31:45;98620.13;;;8.68;98.17
28181;BME280;15464;50.988;10.318;2023-02-23T09:34:12;98626.72;;;8.74;98.02
28181;BME280;15464;50.988;10.318;2023-02-23T09:36:39;98625.16;;;8.71;97.79
28181;BME280;15464;50.988;10.318;2023-02-23T09:39:05;98630.06;;;8.76;97.80
28181;BME280;15464;50.988;10.318;2023-02-23T09:41:46;98630.34;;;8.73;97.60
28181;BME280;15464;50.988;10.318;2023-02-23T09:47:25;98632.34;;;8.80;97.20
28181;BME280;15464;50.988;10.318;2023-02-23T09:49:56;98625.44;;;8.89;97.46
28181;BME280;15464;50.988;10.318;2023-02-23T09:52:51;98638.03;;;8.97;96.93
28181;BME280;15464;50.988;10.318;2023-02-23T09:55:20;98638.09;;;9.06;96.59
28181;BME280;15464;50.988;10.318;2023-02-23T09:57:48;98636.44;;;9.05;96.28
28181;BME280;15464;50.988;10.318;2023-02-23T10:00:20;98642.16;;;9.10;96.39
28181;BME280;15464;50.988;10.318;2023-02-23T10:05:35;98641.13;;;9.02;96.59
28181;BME280;15464;50.988;10.318;2023-02-23T10:08:37;98644.22;;;9.07;96.46
28181;BME280;15464;50.988;10.318;2023-02-23T10:11:17;98641.53;;;9.18;95.97
28181;BME280;15464;50.988;10.318;2023-02-23T10:14:01;98646.63;;;9.10;95.80
28181;BME280;15464;50.988;10.318;2023-02-23T10:22:20;98641.56;;;9.07;95.97
28181;BME280;15464;50.988;10.318;2023-02-23T10:24:55;98638.88;;;9.18;95.86
28181;BME280;15464;50.988;10.318;2023-02-23T10:27:36;98642.09;;;9.21;95.54
28181;BME280;15464;50.988;10.318;2023-02-23T10:32:45;98645.69;;;9.20;95.49
28181;BME280;15464;50.988;10.318;2023-02-23T10:35:17;98651.28;;;9.17;95.58
28181;BME280;15464;50.988;10.318;2023-02-23T10:37:46;98644.34;;;9.26;95.75
28181;BME280;15464;50.988;10.318;2023-02-23T10:40:23;98639.38;;;9.32;96.10
28181;BME280;15464;50.988;10.318;2023-02-23T10:42:51;98642.25;;;9.50;95.78
28181;BME280;15464;50.988;10.318;2023-02-23T10:45:20;98638.81;;;9.59;95.22
28181;BME280;15464;50.988;10.318;2023-02-23T10:47:57;98638.59;;;9.72;95.06
28181;BME280;15464;50.988;10.318;2023-02-23T10:50:27;98634.03;;;9.84;95.10
28181;BME280;15464;50.988;10.318;2023-02-23T10:53:02;98630.16;;;9.88;93.29
28181;BME280;15464;50.988;10.318;2023-02-23T10:55:31;98628.81;;;10.03;93.99
28181;BME280;15464;50.988;10.318;2023-02-23T10:58:09;98631.88;;;10.08;93.00
28181;BME280;15464;50.988;10.318;2023-02-23T11:00:39;98631.41;;;10.24;92.43
28181;BME280;15464;50.988;10.318;2023-02-23T11:05:59;98636.13;;;10.20;92.33
28181;BME280;15464;50.988;10.318;2023-02-23T11:08:32;98636.19;;;10.30;92.07
28181;BME280;15464;50.988;10.318;2023-02-23T11:13:43;98637.41;;;10.26;92.24
28181;BME280;15464;50.988;10.318;2023-02-23T11:16:36;98626.13;;;10.33;91.27
28181;BME280;15464;50.988;10.318;2023-02-23T11:19:06;98628.50;;;10.36;90.28
28181;BME280;15464;50.988;10.318;2023-02-23T11:21:49;98623.03;;;10.28;90.93
28181;BME280;15464;50.988;10.318;2023-02-23T11:24:38;98623.69;;;10.11;90.89
28181;BME280;15464;50.988;10.318;2023-02-23T11:27:19;98620.94;;;10.22;90.63
28181;BME280;15464;50.988;10.318;2023-02-23T11:29:48;98613.84;;;10.23;91.68
28181;BME280;15464;50.988;10.318;2023-02-23T11:32:19;98615.38;;;10.44;90.45
28181;BME280;15464;50.988;10.318;2023-02-23T11:34:48;98612.47;;;10.57;90.47
28181;BME280;15464;50.988;10.318;2023-02-23T11:37:34;98618.06;;;10.54;89.55
28181;BME280;15464;50.988;10.318;2023-02-23T11:40:18;98612.47;;;10.57;89.38
28181;BME280;15464;50.988;10.318;2023-02-23T11:45:32;98604.94;;;10.72;89.39
28181;BME280;15464;50.988;10.318;2023-02-23T11:48:04;98605.50;;;10.85;89.02
28181;BME280;15464;50.988;10.318;2023-02-23T11:50:33;98606.06;;;10.79;89.21
28181;BME280;15464;50.988;10.318;2023-02-23T11:55:31;98608.13;;;10.95;88.56
28181;BME280;15464;50.988;10.318;2023-02-23T12:01:00;98596.25;;;10.99;87.25
28181;BME280;15464;50.988;10.318;2023-02-23T12:03:31;98594.75;;;10.58;85.85
28181;BME280;15464;50.988;10.318;2023-02-23T12:05:58;98594.59;;;10.78;87.88
28181;BME280;15464;50.988;10.318;2023-02-23T12:08:36;98592.50;;;10.63;87.50
28181;BME280;15464;50.988;10.318;2023-02-23T12:11:15;98590.53;;;10.84;87.83
28181;BME280;15464;50.988;10.318;2023-02-23T12:13:52;98589.16;;;10.61;86.05
28181;BME280;15464;50.988;10.318;2023-02-23T12:17:25;98590.38;;;10.95;87.53
28181;BME280;15464;50.988;10.318;2023-02-23T12:19:40;98583.25;;;11.05;86.87
28181;BME280;15464;50.988;10.318;2023-02-23T12:22:13;98586.72;;;11.15;86.47
28181;BME280;15464;50.988;10.318;2023-02-23T12:27:25;98578.09;;;10.75;86.85
28181;BME280;15464;50.988;10.318;2023-02-23T12:30:07;98572.53;;;10.78;86.10
28181;BME280;15464;50.988;10.318;2023-02-23T12:32:57;98576.28;;;10.95;85.82
28181;BME280;15464;50.988;10.318;2023-02-23T12:38:16;98564.66;;;11.15;85.52
28181;BME280;15464;50.988;10.318;2023-02-23T12:40:45;98573.72;;;11.12;86.12
28181;BME280;15464;50.988;10.318;2023-02-23T12:43:25;98579.78;;;11.05;85.75
28181;BME280;15464;50.988;10.318;2023-02-23T12:51:19;98568.59;;;11.01;86.11
28181;BME280;15464;50.988;10.318;2023-02-23T12:53:47;98574.75;;;10.92;86.35
28181;BME280;15464;50.988;10.318;2023-02-23T13:12:39;98575.59;;;10.83;84.94
28181;BME280;15464;50.988;10.318;2023-02-23T13:15:11;98572.13;;;10.73;86.27
28181;BME280;15464;50.988;10.318;2023-02-23T13:18:01;98569.03;;;10.77;86.29
28181;BME280;15464;50.988;10.318;2023-02-23T13:29:01;98561.09;;;10.77;85.74
28181;BME280;15464;50.988;10.318;2023-02-23T13:31:35;98568.22;;;10.86;86.14
28181;BME280;15464;50.988;10.318;2023-02-23T13:34:05;98556.50;;;10.79;86.48
28181;BME280;15464;50.988;10.318;2023-02-23T13:36:36;98555.22;;;10.83;86.73
28181;BME280;15464;50.988;10.318;2023-02-23T13:51:16;98554.97;;;10.38;86.60
28181;BME280;15464;50.988;10.318;2023-02-23T13:53:46;98552.59;;;10.55;87.82
28181;BME280;15464;50.988;10.318;2023-02-23T13:56:28;98549.38;;;10.70;87.32
28181;BME280;15464;50.988;10.318;2023-02-23T13:59:02;98551.59;;;10.75;86.95
28181;BME280;15464;50.988;10.318;2023-02-23T14:01:37;98544.63;;;10.74;86.67
28181;BME280;15464;50.988;10.318;2023-02-23T14:04:20;98552.28;;;10.77;86.21
28181;BME280;15464;50.988;10.318;2023-02-23T14:09:34;98546.28;;;10.75;86.58
28181;BME280;15464;50.988;10.318;2023-02-23T14:14:50;98550.78;;;10.65;86.48
28181;BME280;15464;50.988;10.318;2023-02-23T14:22:34;98549.38;;;10.80;85.52
28181;BME280;15464;50.988;10.318;2023-02-23T14:28:01;98549.91;;;10.93;85.22
28181;BME280;15464;50.988;10.318;2023-02-23T14:30:45;98554.06;;;10.96;85.00
28181;BME280;15464;50.988;10.318;2023-02-23T14:36:28;98551.31;;;10.68;84.47
28181;BME280;15464;50.988;10.318;2023-02-23T14:44:10;98542.97;;;10.54;85.11
28181;BME280;15464;50.988;10.318;2023-02-23T14:49:24;98538.63;;;10.52;87.93
28181;BME280;15464;50.988;10.318;2023-02-23T14:51:53;98543.69;;;10.56;87.31
28181;BME280;15464;50.988;10.318;2023-02-23T14:54:35;98533.47;;;10.61;88.49
28181;BME280;15464;50.988;10.318;2023-02-23T14:57:15;98537.09;;;10.60;89.64
28181;BME280;15464;50.988;10.318;2023-02-23T14:59:56;98535.13;;;10.71;89.62
28181;BME280;15464;50.988;10.318;2023-02-23T15:02:25;98541.69;;;10.77;89.31
28181;BME280;15464;50.988;10.318;2023-02-23T15:04:52;98540.56;;;10.70;89.93
28181;BME280;15464;50.988;10.318;2023-02-23T15:07:36;98537.09;;;10.60;90.84
28181;BME280;15464;50.988;10.318;2023-02-23T15:10:09;98535.00;;;10.54;91.39
28181;BME280;15464;50.988;10.318;2023-02-23T15:12:37;98538.50;;;10.44;92.18
28181;BME280;15464;50.988;10.318;2023-02-23T15:15:09;98536.97;;;10.32;92.09
28181;BME280;15464;50.988;10.318;2023-02-23T15:17:41;98526.75;;;10.18;93.98
28181;BME280;15464;50.988;10.318;2023-02-23T15:20:17;98527.88;;;10.25;93.47
28181;BME280;15464;50.988;10.318;2023-02-23T15:22:46;98528.44;;;10.38;92.84
28181;BME280;15464;50.988;10.318;2023-02-23T15:25:20;98536.69;;;10.35;93.49
28181;BME280;15464;50.988;10.318;2023-02-23T15:27:48;98531.94;;;10.29;94.31
28181;BME280;15464;50.988;10.318;2023-02-23T15:33:10;98539.63;;;10.42;94.11
28181;BME280;15464;50.988;10.318;2023-02-23T15:38:24;98536.41;;;10.38;94.03
28181;BME280;15464;50.988;10.318;2023-02-23T15:41:38;98536.84;;;10.24;94.77